createdAt,value
2019-03-15T00:01:10.648Z,13.67
2019-03-15T00:03:39.466Z,9.90
2019-03-15T00:06:09.532Z,9.06
2019-03-15T00:08:38.658Z,9.45
2019-03-15T00:11:08.180Z,10.04
2019-03-15T00:13:36.985Z,5.83
2019-03-15T00:16:07.056Z,7.72
2019-03-15T00:18:35.818Z,10.55
2019-03-15T00:21:05.934Z,12.38
2019-03-15T00:23:34.992Z,10.40
2019-03-15T00:26:06.689Z,9.30
2019-03-15T00:28:35.176Z,9.80
2019-03-15T00:31:05.162Z,10.02
2019-03-15T00:33:33.984Z,8.55
2019-03-15T00:36:02.996Z,10.13
2019-03-15T00:38:32.004Z,9.40
2019-03-15T00:41:00.533Z,8.48
2019-03-15T00:43:29.640Z,8.53
2019-03-15T00:45:58.597Z,11.88
2019-03-15T00:48:27.719Z,9.28
2019-03-15T00:50:56.448Z,16.75
2019-03-15T00:53:25.236Z,14.17
2019-03-15T00:55:53.751Z,15.18
2019-03-15T00:58:23.480Z,16.10
2019-03-15T01:00:51.976Z,16.87
2019-03-15T01:03:20.870Z,13.63
2019-03-15T01:05:49.978Z,13.88
2019-03-15T01:08:18.757Z,13.07
2019-03-15T01:10:47.475Z,25.40
2019-03-15T01:13:16.257Z,20.52
2019-03-15T01:15:44.752Z,20.45
2019-03-15T01:18:13.551Z,19.30
2019-03-15T01:20:42.328Z,20.60
2019-03-15T01:23:11.124Z,21.07
2019-03-15T01:25:39.921Z,20.33
2019-03-15T01:28:08.412Z,23.77
2019-03-15T01:30:37.200Z,13.37
2019-03-15T01:33:05.997Z,15.38
2019-03-15T01:35:34.489Z,16.97
2019-03-15T01:38:05.179Z,14.20
2019-03-15T01:40:33.878Z,13.32
2019-03-15T01:43:04.557Z,10.32
2019-03-15T01:45:33.755Z,8.25
2019-03-15T01:48:05.110Z,13.20
2019-03-15T01:50:33.720Z,6.45
2019-03-15T01:53:03.154Z,12.95
2019-03-15T01:55:31.965Z,10.50
2019-03-15T01:58:00.777Z,9.70
2019-03-15T02:00:34.101Z,17.50
2019-03-15T02:03:05.738Z,15.47
2019-03-15T02:05:34.543Z,18.42
2019-03-15T02:08:05.015Z,19.17
2019-03-15T02:10:33.867Z,24.90
2019-03-15T02:13:03.211Z,28.32
2019-03-15T02:15:31.721Z,17.20
2019-03-15T02:18:00.549Z,21.57
2019-03-15T02:20:29.027Z,21.45
2019-03-15T02:22:58.375Z,20.27
2019-03-15T02:25:27.470Z,16.25
2019-03-15T02:27:57.639Z,19.57
2019-03-15T02:30:26.319Z,18.07
2019-03-15T02:32:55.127Z,20.77
2019-03-15T02:35:23.776Z,15.03
2019-03-15T02:37:52.281Z,24.65
2019-03-15T02:40:20.836Z,17.33
2019-03-15T02:42:49.601Z,15.60
2019-03-15T02:45:18.293Z,16.43
2019-03-15T02:47:46.854Z,24.52
2019-03-15T02:50:15.693Z,23.90
2019-03-15T02:52:44.207Z,22.60
2019-03-15T02:55:12.941Z,16.07
2019-03-15T02:57:41.777Z,23.10
2019-03-15T03:00:18.390Z,17.73
2019-03-15T03:02:47.296Z,15.17
2019-03-15T03:05:16.093Z,17.95
2019-03-15T03:07:45.246Z,18.87
2019-03-15T03:10:13.922Z,20.80
2019-03-15T03:12:43.983Z,20.08
2019-03-15T03:15:13.173Z,29.42
2019-03-15T03:17:42.292Z,33.53
2019-03-15T03:20:11.073Z,36.90
2019-03-15T03:22:40.102Z,45.73
2019-03-15T03:25:08.777Z,39.78
2019-03-15T03:27:37.870Z,47.20
2019-03-15T03:30:08.137Z,40.23
2019-03-15T03:32:36.952Z,45.13
2019-03-15T03:35:06.385Z,47.27
2019-03-15T03:37:35.143Z,38.97
2019-03-15T03:40:04.674Z,41.87
2019-03-15T03:42:33.165Z,30.97
2019-03-15T03:45:02.048Z,31.02
2019-03-15T03:47:32.830Z,34.60
2019-03-15T03:50:01.761Z,37.58
2019-03-15T03:52:31.817Z,25.08
2019-03-15T03:55:00.675Z,30.15
2019-03-15T03:57:29.152Z,24.47
2019-03-15T03:59:57.677Z,19.00
2019-03-15T04:02:26.215Z,16.80
2019-03-15T04:04:55.713Z,12.17
2019-03-15T04:07:24.516Z,19.30
2019-03-15T04:09:53.364Z,19.20
2019-03-15T04:12:22.214Z,17.03
2019-03-15T04:14:50.723Z,16.02
2019-03-15T04:17:19.209Z,12.97
2019-03-15T04:19:47.793Z,11.57
2019-03-15T04:22:16.303Z,15.47
2019-03-15T04:24:44.839Z,15.70
2019-03-15T04:27:13.638Z,13.22
2019-03-15T04:29:42.185Z,8.68
2019-03-15T04:32:10.972Z,11.05
2019-03-15T04:34:40.059Z,11.80
2019-03-15T04:37:09.356Z,12.05
2019-03-15T04:39:38.629Z,15.10
2019-03-15T04:42:07.424Z,11.83
2019-03-15T04:44:36.229Z,9.00
2019-03-15T04:47:05.508Z,9.26
2019-03-15T04:49:34.172Z,12.53
2019-03-15T04:52:02.819Z,8.63
2019-03-15T04:54:31.346Z,6.97
2019-03-15T04:57:00.144Z,12.13
2019-03-15T04:59:28.955Z,9.60
2019-03-15T05:01:58.053Z,10.05
2019-03-15T05:04:26.836Z,10.50
2019-03-15T05:06:55.958Z,10.80
2019-03-15T05:09:24.449Z,9.53
2019-03-15T05:11:53.268Z,10.75
2019-03-15T05:14:23.042Z,16.07
2019-03-15T05:16:51.878Z,9.43
2019-03-15T05:19:20.437Z,10.00
2019-03-15T05:21:49.304Z,12.50
2019-03-15T05:24:17.787Z,12.83
2019-03-15T05:26:46.613Z,9.60
2019-03-15T05:29:15.112Z,10.97
2019-03-15T05:31:43.603Z,9.00
2019-03-15T05:34:12.378Z,9.50
2019-03-15T05:36:41.183Z,9.20
2019-03-15T05:39:09.949Z,13.90
2019-03-15T05:41:38.769Z,10.98
2019-03-15T05:44:07.452Z,7.42
2019-03-15T05:46:36.168Z,10.65
2019-03-15T05:49:07.125Z,9.42
2019-03-15T05:51:36.202Z,10.63
2019-03-15T05:54:06.917Z,11.68
2019-03-15T05:56:35.660Z,12.25
2019-03-15T05:59:05.862Z,8.65
2019-03-15T06:01:34.647Z,8.57
2019-03-15T06:04:03.313Z,11.18
2019-03-15T06:06:32.115Z,9.95
2019-03-15T06:09:04.247Z,7.43
2019-03-15T06:11:35.197Z,4.87
2019-03-15T06:14:05.561Z,5.67
2019-03-15T06:16:34.443Z,6.17
2019-03-15T06:19:03.418Z,9.87
2019-03-15T06:21:32.395Z,10.85
2019-03-15T06:24:01.372Z,14.78
2019-03-15T06:26:29.990Z,10.65
2019-03-15T06:29:01.489Z,7.33
2019-03-15T06:31:30.924Z,11.10
2019-03-15T06:34:00.352Z,12.23
2019-03-15T06:36:28.866Z,8.68
2019-03-15T06:38:57.640Z,8.47
2019-03-15T06:41:26.180Z,7.67
2019-03-15T06:43:54.996Z,6.33
2019-03-15T06:46:24.802Z,6.35
2019-03-15T06:48:53.696Z,11.93
2019-03-15T06:51:22.599Z,9.10
2019-03-15T06:53:51.694Z,9.13
2019-03-15T06:56:20.259Z,9.60
2019-03-15T06:58:49.164Z,7.47
2019-03-15T07:01:18.556Z,7.13
2019-03-15T07:03:47.136Z,12.30
2019-03-15T07:06:16.025Z,9.47
2019-03-15T07:08:44.809Z,11.97
2019-03-15T07:11:13.818Z,15.20
2019-03-15T07:13:42.397Z,8.85
2019-03-15T07:16:10.979Z,15.80
2019-03-15T07:18:40.281Z,9.30
2019-03-15T07:21:09.273Z,14.63
2019-03-15T07:23:38.469Z,13.88
2019-03-15T07:26:07.857Z,11.35
2019-03-15T07:28:36.862Z,13.60
2019-03-15T07:31:06.365Z,16.88
2019-03-15T07:33:35.239Z,11.67
2019-03-15T07:36:05.364Z,15.65
2019-03-15T07:38:34.245Z,13.50
2019-03-15T07:41:05.412Z,15.15
2019-03-15T07:43:33.972Z,20.27
2019-03-15T07:46:05.435Z,15.85
2019-03-15T07:48:34.001Z,16.42
2019-03-15T07:51:02.971Z,16.70
2019-03-15T07:53:35.261Z,13.18
2019-03-15T07:56:03.859Z,25.77
2019-03-15T07:58:33.554Z,16.43
2019-03-15T08:01:03.685Z,13.63
2019-03-15T08:03:32.560Z,9.77
2019-03-15T08:06:01.141Z,18.23
2019-03-15T08:08:29.882Z,14.25
2019-03-15T08:10:59.425Z,13.35
2019-03-15T08:13:28.440Z,10.80
2019-03-15T08:15:57.327Z,18.50
2019-03-15T08:18:26.196Z,10.40
2019-03-15T08:20:54.984Z,13.93
2019-03-15T08:23:24.897Z,9.67
2019-03-15T08:25:53.784Z,9.33
2019-03-15T08:28:23.695Z,11.93
2019-03-15T08:30:52.697Z,17.87
2019-03-15T08:33:21.335Z,16.00
2019-03-15T08:35:50.268Z,18.23
2019-03-15T08:38:18.787Z,17.67
2019-03-15T08:40:47.940Z,15.88
2019-03-15T08:43:17.451Z,18.93
2019-03-15T08:45:46.456Z,27.83
2019-03-15T08:48:15.342Z,18.17
2019-03-15T08:50:44.233Z,35.23
2019-03-15T08:53:13.017Z,20.90
2019-03-15T08:55:42.098Z,21.45
2019-03-15T08:58:15.819Z,21.25
2019-03-15T09:00:41.637Z,22.93
2019-03-15T09:03:10.228Z,17.90
2019-03-15T09:05:39.189Z,17.60
2019-03-15T09:08:08.093Z,21.40
2019-03-15T09:10:36.972Z,15.83
2019-03-15T09:13:06.384Z,21.23
2019-03-15T09:15:35.336Z,19.93
2019-03-15T09:18:04.469Z,28.98
2019-03-15T09:20:33.039Z,29.12
2019-03-15T09:23:01.726Z,25.60
2019-03-15T09:25:30.405Z,30.08
2019-03-15T09:27:59.396Z,35.90
2019-03-15T09:30:27.992Z,28.92
2019-03-15T09:32:56.565Z,27.58
2019-03-15T09:35:25.145Z,32.00
2019-03-15T09:37:54.033Z,31.27
2019-03-15T09:40:25.418Z,33.88
2019-03-15T09:42:53.361Z,41.40
2019-03-15T09:45:21.947Z,37.47
2019-03-15T09:47:51.020Z,30.75
2019-03-15T09:50:32.978Z,33.75
2019-03-15T09:52:50.660Z,35.00
2019-03-15T09:55:31.961Z,38.80
2019-03-15T09:57:49.836Z,45.98
2019-03-15T10:00:19.274Z,33.55
2019-03-15T10:02:49.658Z,43.27
2019-03-15T10:05:18.309Z,44.13
2019-03-15T10:07:47.199Z,36.93
2019-03-15T10:10:18.882Z,32.83
2019-03-15T10:12:48.104Z,35.52
2019-03-15T10:15:17.107Z,42.50
2019-03-15T10:17:45.638Z,55.12
2019-03-15T10:20:14.260Z,44.13
2019-03-15T10:22:43.352Z,41.77
2019-03-15T10:25:12.928Z,39.25
2019-03-15T10:27:43.201Z,41.42
2019-03-15T10:30:13.154Z,35.60
2019-03-15T10:32:42.093Z,26.90
2019-03-15T10:35:10.934Z,44.77
2019-03-15T10:37:39.421Z,42.60
2019-03-15T10:40:15.291Z,39.55
2019-03-15T10:42:44.123Z,37.70
2019-03-15T10:45:14.011Z,40.78
2019-03-15T10:47:43.141Z,42.27
2019-03-15T10:50:18.004Z,35.23
2019-03-15T10:52:47.085Z,33.95
2019-03-15T10:55:16.240Z,32.67
2019-03-15T10:57:45.203Z,33.65
2019-03-15T11:00:20.813Z,31.20
2019-03-15T11:02:47.802Z,31.40
2019-03-15T11:05:16.400Z,34.60
2019-03-15T11:07:45.355Z,35.43
2019-03-15T11:10:14.469Z,37.20
2019-03-15T11:12:43.359Z,40.78
2019-03-15T11:15:13.688Z,39.27
2019-03-15T11:17:42.587Z,33.57
2019-03-15T11:20:11.979Z,38.50
2019-03-15T11:22:40.860Z,33.80
2019-03-15T11:25:11.206Z,35.07
2019-03-15T11:27:39.882Z,36.33
2019-03-15T11:30:10.776Z,38.20
2019-03-15T11:32:39.593Z,37.17
2019-03-15T11:35:08.887Z,34.92
2019-03-15T11:37:38.106Z,48.00
2019-03-15T11:40:08.532Z,36.42
2019-03-15T11:42:37.400Z,36.60
2019-03-15T11:45:07.836Z,36.80
2019-03-15T11:48:00.712Z,38.30
2019-03-15T11:50:11.345Z,33.25
2019-03-15T11:52:40.346Z,30.43
2019-03-15T11:55:09.626Z,28.98
2019-03-15T11:57:38.473Z,33.27
2019-03-15T12:00:19.337Z,32.45
2019-03-15T12:02:49.299Z,30.27
2019-03-15T12:05:17.888Z,34.07
2019-03-15T12:07:46.792Z,46.28
2019-03-15T12:10:16.194Z,34.30
2019-03-15T12:12:45.391Z,27.93
2019-03-15T12:15:15.389Z,32.45
2019-03-15T12:17:44.274Z,34.10
2019-03-15T12:20:14.534Z,23.95
2019-03-15T12:22:43.726Z,27.40
2019-03-15T12:25:12.475Z,25.57
2019-03-15T12:27:42.192Z,23.35
2019-03-15T12:30:12.324Z,27.97
2019-03-15T12:32:40.988Z,23.77
2019-03-15T12:35:10.591Z,23.57
2019-03-15T12:37:39.483Z,19.93
2019-03-15T12:40:11.648Z,31.15
2019-03-15T12:42:40.765Z,25.77
2019-03-15T12:45:10.267Z,17.20
2019-03-15T12:47:38.831Z,19.80
2019-03-15T12:50:11.719Z,24.10
2019-03-15T12:52:47.752Z,21.75
2019-03-15T12:55:11.428Z,24.33
2019-03-15T12:57:40.015Z,27.35
2019-03-15T13:00:22.569Z,37.40
2019-03-15T13:02:50.824Z,25.27
2019-03-15T13:05:19.433Z,25.10
2019-03-15T13:07:47.958Z,33.02
2019-03-15T13:10:18.100Z,27.07
2019-03-15T13:12:47.052Z,28.80
2019-03-15T13:15:17.114Z,27.00
2019-03-15T13:17:46.351Z,29.20
2019-03-15T13:20:15.678Z,36.60
2019-03-15T13:22:44.946Z,21.48
2019-03-15T13:25:14.442Z,26.25
2019-03-15T13:27:43.533Z,29.82
2019-03-15T13:30:18.538Z,29.07
2019-03-15T13:32:47.798Z,25.12
2019-03-15T13:35:17.340Z,20.35
2019-03-15T13:37:47.828Z,23.73
2019-03-15T13:40:17.306Z,23.17
2019-03-15T13:42:46.864Z,15.30
2019-03-15T13:45:16.906Z,18.73
2019-03-15T13:47:46.446Z,21.80
2019-03-15T13:50:16.378Z,23.23
2019-03-15T13:52:45.474Z,13.62
2019-03-15T13:55:25.700Z,13.90
2019-03-15T13:57:55.202Z,11.53
2019-03-15T14:00:26.648Z,14.75
2019-03-15T14:02:57.380Z,20.43
2019-03-15T14:05:26.579Z,13.50
2019-03-15T14:07:55.733Z,12.13
2019-03-15T14:10:24.325Z,14.17
2019-03-15T14:12:52.876Z,18.35
2019-03-15T14:15:21.762Z,12.33
2019-03-15T14:17:50.453Z,17.67
2019-03-15T14:20:18.936Z,15.17
2019-03-15T14:22:47.530Z,17.35
2019-03-15T14:25:24.552Z,23.12
2019-03-15T14:32:49.207Z,19.50
2019-03-15T14:35:18.100Z,18.17
2019-03-15T14:37:47.129Z,22.10
2019-03-15T14:40:16.323Z,21.40
2019-03-15T14:42:45.196Z,27.30
2019-03-15T14:45:14.498Z,27.27
2019-03-15T14:47:44.259Z,34.08
2019-03-15T14:50:13.760Z,35.45
2019-03-15T14:52:42.343Z,39.80
2019-03-15T14:55:11.506Z,31.47
2019-03-15T14:57:52.128Z,37.23
2019-03-15T15:00:16.239Z,33.17
2019-03-15T15:02:45.756Z,35.23
2019-03-15T15:05:14.499Z,37.60
2019-03-15T15:07:43.699Z,40.03
2019-03-15T15:10:18.466Z,30.70
2019-03-15T15:12:47.754Z,31.37
2019-03-15T15:15:18.252Z,35.63
2019-03-15T15:17:47.039Z,41.73
2019-03-15T15:20:16.861Z,39.33
2019-03-15T15:22:45.663Z,29.70
2019-03-15T15:25:17.626Z,29.98
2019-03-15T15:27:46.396Z,28.83
2019-03-15T15:30:15.819Z,34.60
2019-03-15T15:32:44.772Z,35.80
2019-03-15T15:35:14.583Z,32.93
2019-03-15T15:37:44.944Z,29.67
2019-03-15T15:40:17.487Z,28.17
2019-03-15T15:42:47.158Z,34.73
2019-03-15T15:45:17.440Z,32.20
2019-03-15T15:47:46.303Z,30.85
2019-03-15T15:50:15.285Z,26.17
2019-03-15T15:52:44.102Z,30.20
2019-03-15T15:55:13.587Z,27.93
2019-03-15T15:57:42.416Z,28.75
2019-03-15T16:00:17.757Z,28.00
2019-03-15T16:02:46.828Z,23.40
2019-03-15T16:05:15.513Z,26.23
2019-03-15T16:07:44.682Z,23.85
2019-03-15T16:10:17.432Z,19.70
2019-03-15T16:12:45.249Z,30.92
2019-03-15T16:15:14.962Z,25.75
2019-03-15T16:17:45.718Z,34.60
2019-03-15T16:20:16.116Z,29.47
2019-03-15T16:22:45.302Z,24.23
2019-03-15T16:25:13.922Z,30.13
2019-03-15T16:27:44.300Z,28.67
2019-03-15T16:30:14.322Z,24.67
2019-03-15T16:32:43.419Z,30.43
2019-03-15T16:35:12.547Z,33.77
2019-03-15T16:37:41.757Z,21.03
2019-03-15T16:40:11.841Z,26.00
2019-03-15T16:42:41.134Z,34.10
2019-03-15T16:45:17.601Z,17.87
2019-03-15T16:47:47.928Z,24.30
2019-03-15T16:50:17.343Z,26.17
2019-03-15T16:52:47.445Z,24.20
2019-03-15T16:55:16.437Z,26.17
2019-03-15T16:57:45.006Z,19.45
2019-03-15T17:00:17.316Z,23.47
2019-03-15T17:02:47.412Z,25.53
2019-03-15T17:05:16.173Z,35.60
2019-03-15T17:07:45.077Z,26.57
2019-03-15T17:10:17.323Z,22.13
2019-03-15T17:12:46.220Z,23.00
2019-03-15T17:15:16.354Z,18.23
2019-03-15T17:17:45.758Z,22.10
2019-03-15T17:20:14.940Z,24.67
2019-03-15T17:22:43.740Z,22.30
2019-03-15T17:25:12.509Z,18.33
2019-03-15T17:27:41.132Z,16.77
2019-03-15T17:30:10.985Z,20.07
2019-03-15T17:32:39.909Z,13.53
2019-03-15T17:35:09.910Z,14.15
2019-03-15T17:37:39.568Z,18.45
2019-03-15T17:40:15.015Z,14.25
2019-03-15T17:42:44.975Z,17.55
2019-03-15T17:45:13.721Z,14.60
2019-03-15T17:47:42.334Z,15.65
2019-03-15T17:50:12.266Z,20.20
2019-03-15T17:52:41.878Z,13.18
2019-03-15T17:55:10.748Z,12.94
2019-03-15T17:57:39.451Z,18.80
2019-03-15T18:00:25.750Z,13.03
2019-03-15T18:02:55.955Z,13.80
2019-03-15T18:05:24.632Z,16.50
2019-03-15T18:07:54.531Z,17.62
2019-03-15T18:10:23.332Z,17.30
2019-03-15T18:12:52.745Z,15.13
2019-03-15T18:15:22.003Z,16.45
2019-03-15T18:17:50.823Z,13.25
2019-03-15T18:20:21.965Z,17.30
2019-03-15T18:22:50.548Z,17.60
2019-03-15T18:25:19.539Z,13.45
2019-03-15T18:27:49.060Z,15.63
2019-03-15T18:30:17.845Z,10.27
2019-03-15T18:32:46.429Z,14.78
2019-03-15T18:35:16.237Z,10.73
2019-03-15T18:37:46.458Z,14.47
2019-03-15T18:40:16.244Z,9.43
2019-03-15T18:42:45.348Z,16.65
2019-03-15T18:45:15.771Z,14.07
2019-03-15T18:47:44.953Z,17.45
2019-03-15T18:50:17.756Z,10.93
2019-03-15T18:52:46.451Z,10.10
2019-03-15T18:55:15.352Z,13.63
2019-03-15T18:57:43.915Z,17.65
2019-03-15T19:00:24.840Z,19.20
2019-03-15T19:02:55.922Z,17.40
2019-03-15T19:05:24.706Z,16.27
2019-03-15T19:07:55.535Z,16.40
2019-03-15T19:10:24.400Z,20.27
2019-03-15T19:12:53.552Z,14.80
2019-03-15T19:15:22.721Z,11.85
2019-03-15T19:17:55.831Z,16.42
2019-03-15T19:20:24.900Z,17.12
2019-03-15T19:22:56.089Z,9.30
2019-03-15T19:25:25.330Z,16.03
2019-03-15T19:27:54.862Z,12.53
2019-03-15T19:30:29.574Z,16.87
2019-03-15T19:32:59.502Z,19.45
2019-03-15T19:38:23.923Z,17.73
2019-03-15T19:40:52.713Z,16.75
2019-03-15T19:43:24.141Z,17.55
2019-03-15T19:45:54.448Z,19.53
2019-03-15T19:48:24.998Z,17.30
2019-03-15T19:50:53.890Z,12.57
2019-03-15T19:53:22.790Z,21.95
2019-03-15T19:55:52.884Z,21.87
2019-03-15T19:58:21.471Z,16.87
2019-03-15T20:00:50.528Z,26.20
2019-03-15T20:03:26.036Z,18.00
2019-03-15T20:05:59.398Z,21.60
2019-03-15T20:08:28.472Z,15.98
2019-03-15T20:10:57.066Z,15.13
2019-03-15T20:13:26.287Z,18.85
2019-03-15T20:15:55.056Z,22.58
2019-03-15T20:18:23.931Z,21.00
2019-03-15T20:20:53.043Z,23.05
2019-03-15T20:23:21.812Z,15.40
2019-03-15T20:25:50.393Z,19.17
2019-03-15T20:28:20.742Z,19.33
2019-03-15T20:30:52.202Z,16.93
2019-03-15T20:33:23.890Z,17.98
2019-03-15T20:35:52.643Z,17.70
2019-03-15T20:38:21.496Z,18.92
2019-03-15T20:40:51.718Z,24.75
2019-03-15T20:43:20.301Z,23.83
2019-03-15T20:45:48.786Z,18.35
2019-03-15T20:48:17.683Z,17.70
2019-03-15T20:50:48.484Z,19.77
2019-03-15T20:53:17.393Z,21.42
2019-03-15T20:55:46.576Z,17.40
2019-03-15T20:58:15.781Z,23.02
2019-03-15T21:00:44.465Z,24.27
2019-03-15T21:03:13.665Z,25.27
2019-03-15T21:05:42.549Z,29.70
2019-03-15T21:08:11.336Z,26.17
2019-03-15T21:10:39.920Z,15.05
2019-03-15T21:13:08.804Z,16.73
2019-03-15T21:15:37.721Z,15.33
2019-03-15T21:18:06.284Z,15.40
2019-03-15T21:20:34.855Z,17.57
2019-03-15T21:23:05.338Z,13.88
2019-03-15T21:25:34.394Z,20.92
2019-03-15T21:28:02.932Z,16.07
2019-03-15T21:30:32.984Z,17.50
2019-03-15T21:33:02.054Z,18.98
2019-03-15T21:35:31.044Z,17.33
2019-03-15T21:37:59.548Z,22.20
2019-03-15T21:40:28.039Z,22.07
2019-03-15T21:42:56.587Z,13.68
2019-03-15T21:45:25.080Z,17.37
2019-03-15T21:47:54.177Z,18.48
2019-03-15T21:50:23.225Z,17.20
2019-03-15T21:52:51.728Z,18.75
2019-03-15T21:55:20.248Z,15.20
2019-03-15T21:57:51.074Z,13.50
2019-03-15T22:00:31.245Z,15.83
2019-03-15T22:02:59.768Z,12.03
2019-03-15T22:05:28.345Z,14.13
2019-03-15T22:07:56.837Z,12.98
2019-03-15T22:10:25.806Z,12.10
2019-03-15T22:12:54.352Z,16.30
2019-03-15T22:15:22.960Z,15.40
2019-03-15T22:17:51.629Z,11.45
2019-03-15T22:20:20.273Z,12.57
2019-03-15T22:22:49.064Z,12.43
2019-03-15T22:25:17.592Z,18.97
2019-03-15T22:27:49.914Z,9.55
2019-03-15T22:30:17.102Z,16.75
2019-03-15T22:32:45.892Z,12.33
2019-03-15T22:35:14.373Z,11.20
2019-03-15T22:37:43.503Z,13.68
2019-03-15T22:40:12.596Z,16.43
2019-03-15T22:42:41.077Z,10.20
2019-03-15T22:45:10.610Z,12.90
2019-03-15T22:47:39.142Z,10.60
2019-03-15T22:50:08.568Z,16.30
2019-03-15T22:52:37.695Z,13.55
2019-03-15T22:55:07.380Z,14.47
2019-03-15T22:57:37.381Z,12.13
2019-03-15T23:00:07.858Z,14.63
2019-03-15T23:02:39.000Z,9.23
2019-03-15T23:05:08.828Z,13.25
2019-03-15T23:07:37.341Z,10.80
2019-03-15T23:10:08.100Z,9.38
2019-03-15T23:12:36.579Z,9.80
2019-03-15T23:15:08.196Z,11.82
2019-03-15T23:17:36.703Z,12.85
2019-03-15T23:20:07.481Z,13.50
2019-03-15T23:22:35.993Z,8.98
2019-03-15T23:25:06.055Z,12.70
2019-03-15T23:27:34.831Z,9.33
2019-03-15T23:30:04.182Z,9.20
2019-03-15T23:32:32.664Z,6.25
2019-03-15T23:35:02.694Z,8.88
2019-03-15T23:37:31.319Z,7.53
2019-03-15T23:40:00.186Z,9.33
2019-03-15T23:42:28.992Z,9.00
2019-03-15T23:44:57.506Z,6.70
2019-03-15T23:47:26.927Z,7.53
2019-03-15T23:49:55.699Z,8.43
2019-03-15T23:52:24.257Z,10.30
2019-03-15T23:54:52.765Z,5.67
2019-03-15T23:57:21.709Z,9.78
2019-03-15T23:59:50.780Z,6.87
